createdAt,value
2017-05-29T00:01:38.726Z,10.70
2017-05-29T00:04:07.795Z,10.72
2017-05-29T00:06:36.875Z,11.08
2017-05-29T00:09:05.946Z,11.16
2017-05-29T00:11:35.010Z,10.88
2017-05-29T00:14:04.081Z,10.60
2017-05-29T00:16:33.153Z,10.76
2017-05-29T00:19:02.218Z,10.34
2017-05-29T00:21:31.356Z,10.76
2017-05-29T00:24:00.418Z,10.88
2017-05-29T00:26:29.478Z,11.50
2017-05-29T00:28:58.566Z,10.14
2017-05-29T00:31:27.622Z,10.62
2017-05-29T00:33:56.676Z,9.68
2017-05-29T00:36:25.752Z,10.70
2017-05-29T00:38:54.826Z,10.68
2017-05-29T00:41:23.887Z,9.30
2017-05-29T00:43:52.966Z,11.02
2017-05-29T00:46:22.040Z,10.32
2017-05-29T00:48:51.093Z,9.58
2017-05-29T00:51:20.159Z,11.00
2017-05-29T00:53:49.210Z,11.24
2017-05-29T00:56:18.283Z,10.24
2017-05-29T00:58:47.408Z,10.60
2017-05-29T01:01:16.461Z,9.94
2017-05-29T01:03:45.502Z,9.94
2017-05-29T01:06:14.605Z,10.30
2017-05-29T01:08:43.661Z,10.00
2017-05-29T01:11:12.722Z,10.50
2017-05-29T01:13:41.831Z,10.96
2017-05-29T01:16:10.913Z,9.30
2017-05-29T01:18:39.996Z,10.10
2017-05-29T01:21:09.071Z,10.32
2017-05-29T01:23:38.126Z,10.30
2017-05-29T01:26:07.182Z,10.28
2017-05-29T01:28:36.287Z,10.28
2017-05-29T01:31:05.351Z,9.80
2017-05-29T01:33:34.397Z,9.92
2017-05-29T01:36:03.474Z,10.22
2017-05-29T01:38:32.547Z,10.22
2017-05-29T01:41:01.602Z,9.76
2017-05-29T01:43:30.689Z,10.30
2017-05-29T01:45:59.763Z,10.46
2017-05-29T01:48:28.830Z,10.72
2017-05-29T01:50:57.914Z,9.84
2017-05-29T01:53:26.980Z,10.50
2017-05-29T01:55:56.027Z,10.42
2017-05-29T01:58:25.109Z,10.36
2017-05-29T02:00:54.177Z,10.90
2017-05-29T02:03:23.226Z,9.92
2017-05-29T02:05:52.307Z,10.68
2017-05-29T02:08:21.387Z,10.62
2017-05-29T02:10:50.437Z,10.50
2017-05-29T02:13:19.531Z,11.08
2017-05-29T02:15:48.604Z,10.56
2017-05-29T02:18:17.677Z,10.80
2017-05-29T02:20:46.760Z,10.72
2017-05-29T02:23:15.818Z,10.80
2017-05-29T02:25:44.865Z,11.10
2017-05-29T02:28:14.255Z,10.30
2017-05-29T02:30:43.311Z,10.20
2017-05-29T02:33:12.382Z,11.02
2017-05-29T02:35:41.468Z,11.04
2017-05-29T02:38:10.522Z,10.06
2017-05-29T02:40:39.587Z,10.32
2017-05-29T02:43:08.658Z,10.96
2017-05-29T02:45:37.717Z,10.66
2017-05-29T02:48:06.783Z,10.48
2017-05-29T02:50:35.877Z,10.80
2017-05-29T02:53:04.953Z,11.26
2017-05-29T02:55:34.026Z,11.12
2017-05-29T02:58:03.102Z,10.54
2017-05-29T03:00:32.171Z,9.24
2017-05-29T03:03:01.246Z,10.48
2017-05-29T03:05:30.597Z,9.24
2017-05-29T03:07:59.650Z,9.40
2017-05-29T03:10:28.711Z,8.84
2017-05-29T03:12:57.819Z,9.62
2017-05-29T03:15:26.080Z,9.46
2017-05-29T03:17:55.145Z,9.52
2017-05-29T03:20:24.234Z,8.84
2017-05-29T03:22:53.288Z,8.78
2017-05-29T03:25:22.348Z,8.50
2017-05-29T03:27:51.407Z,8.70
2017-05-29T03:30:20.464Z,8.94
2017-05-29T03:32:49.524Z,9.34
2017-05-29T03:35:18.600Z,9.04
2017-05-29T03:37:47.649Z,8.78
2017-05-29T03:40:16.706Z,8.42
2017-05-29T03:42:45.769Z,8.86
2017-05-29T03:45:14.831Z,9.54
2017-05-29T03:47:43.890Z,9.36
2017-05-29T03:50:12.987Z,9.42
2017-05-29T03:52:42.050Z,9.20
2017-05-29T03:55:11.104Z,9.06
2017-05-29T03:57:40.175Z,8.72
2017-05-29T04:00:09.227Z,9.04
2017-05-29T04:02:38.375Z,9.52
2017-05-29T04:05:07.433Z,8.42
2017-05-29T04:07:36.495Z,8.34
2017-05-29T04:10:05.542Z,8.64
2017-05-29T04:12:35.006Z,8.30
2017-05-29T04:15:04.057Z,8.72
2017-05-29T04:17:33.105Z,8.52
2017-05-29T04:20:02.160Z,7.62
2017-05-29T04:22:31.243Z,7.92
2017-05-29T04:25:00.285Z,7.50
2017-05-29T04:27:29.435Z,7.22
2017-05-29T04:29:58.500Z,7.58
2017-05-29T04:32:31.670Z,7.02
2017-05-29T04:35:00.687Z,7.78
2017-05-29T04:37:29.746Z,8.28
2017-05-29T04:39:58.817Z,8.08
2017-05-29T04:42:28.174Z,8.36
2017-05-29T04:44:57.239Z,8.06
2017-05-29T04:47:26.319Z,7.70
2017-05-29T04:49:55.435Z,7.70
2017-05-29T04:52:24.478Z,8.44
2017-05-29T04:54:53.536Z,7.84
2017-05-29T04:57:22.614Z,9.58
2017-05-29T04:59:51.649Z,8.10
2017-05-29T05:02:20.715Z,7.14
2017-05-29T05:04:49.784Z,7.40
2017-05-29T05:07:19.726Z,7.70
2017-05-29T05:09:49.573Z,8.70
2017-05-29T05:12:18.632Z,7.26
2017-05-29T05:14:47.811Z,7.46
2017-05-29T05:17:16.892Z,7.84
2017-05-29T05:19:45.947Z,8.02
2017-05-29T05:22:15.012Z,7.48
2017-05-29T05:24:44.081Z,7.60
2017-05-29T05:27:13.129Z,7.52
2017-05-29T05:29:42.179Z,6.72
2017-05-29T05:32:11.306Z,7.08
2017-05-29T05:34:40.344Z,6.76
2017-05-29T05:37:09.394Z,6.84
2017-05-29T05:39:38.533Z,6.72
2017-05-29T05:42:07.525Z,7.48
2017-05-29T05:44:36.566Z,6.60
2017-05-29T05:47:05.643Z,7.26
2017-05-29T05:49:34.699Z,7.46
2017-05-29T05:52:03.740Z,7.34
2017-05-29T05:54:32.806Z,7.74
2017-05-29T05:57:01.849Z,6.54
2017-05-29T05:59:30.894Z,7.14
2017-05-29T06:01:59.958Z,7.08
2017-05-29T06:04:29.002Z,6.80
2017-05-29T06:06:58.116Z,6.80
2017-05-29T06:09:28.898Z,7.08
2017-05-29T06:11:57.987Z,6.76
2017-05-29T06:14:27.041Z,7.98
2017-05-29T06:16:56.124Z,7.46
2017-05-29T06:19:25.185Z,8.26
2017-05-29T06:21:54.229Z,7.52
2017-05-29T06:24:23.326Z,7.42
2017-05-29T06:26:51.620Z,7.40
2017-05-29T06:29:20.649Z,7.44
2017-05-29T06:31:49.721Z,6.70
2017-05-29T06:34:18.763Z,7.20
2017-05-29T06:36:47.827Z,7.44
2017-05-29T06:39:16.887Z,9.92
2017-05-29T06:41:45.965Z,10.06
2017-05-29T06:44:14.249Z,7.74
2017-05-29T06:46:43.316Z,7.06
2017-05-29T06:49:12.431Z,8.08
2017-05-29T06:51:41.492Z,6.88
2017-05-29T06:54:10.567Z,8.52
2017-05-29T06:56:39.600Z,7.46
2017-05-29T06:59:07.899Z,7.00
2017-05-29T07:01:36.981Z,7.36
2017-05-29T07:04:06.079Z,8.92
2017-05-29T07:06:35.127Z,7.26
2017-05-29T07:09:04.202Z,7.82
2017-05-29T07:11:33.280Z,6.70
2017-05-29T07:14:02.331Z,7.04
2017-05-29T07:16:31.412Z,7.76
2017-05-29T07:19:00.509Z,7.44
2017-05-29T07:21:29.533Z,6.60
2017-05-29T07:23:58.600Z,6.92
2017-05-29T07:26:27.633Z,7.02
2017-05-29T07:28:56.699Z,6.64
2017-05-29T07:31:25.776Z,6.40
2017-05-29T07:33:54.814Z,7.08
2017-05-29T07:36:23.874Z,7.38
2017-05-29T07:38:52.927Z,7.28
2017-05-29T07:41:21.975Z,6.90
2017-05-29T07:43:51.026Z,7.00
2017-05-29T07:46:19.317Z,6.90
2017-05-29T07:48:48.365Z,6.60
2017-05-29T07:51:17.431Z,6.60
2017-05-29T07:53:46.502Z,6.18
2017-05-29T07:56:15.547Z,7.24
2017-05-29T07:58:44.603Z,6.42
2017-05-29T08:01:13.681Z,6.40
2017-05-29T08:03:42.728Z,6.86
2017-05-29T08:06:11.783Z,6.54
2017-05-29T08:08:40.868Z,5.48
2017-05-29T08:11:09.941Z,7.86
2017-05-29T08:13:38.999Z,7.68
2017-05-29T08:16:08.078Z,6.86
2017-05-29T08:18:37.875Z,7.08
2017-05-29T08:21:06.948Z,6.20
2017-05-29T08:23:36.405Z,7.14
2017-05-29T08:26:05.444Z,7.28
2017-05-29T08:28:34.482Z,6.46
2017-05-29T08:31:03.552Z,7.68
2017-05-29T08:33:32.595Z,6.62
2017-05-29T08:36:01.634Z,6.32
2017-05-29T08:38:30.713Z,11.62
2017-05-29T08:40:59.778Z,6.94
2017-05-29T08:43:30.518Z,6.72
2017-05-29T08:45:59.624Z,7.80
2017-05-29T08:48:28.662Z,7.40
2017-05-29T08:50:57.747Z,10.72
2017-05-29T08:53:26.799Z,6.80
2017-05-29T08:55:55.842Z,6.96
2017-05-29T08:58:24.976Z,7.22
2017-05-29T09:00:53.945Z,6.56
2017-05-29T09:03:22.999Z,6.78
2017-05-29T09:05:52.069Z,6.40
2017-05-29T09:08:21.145Z,6.74
2017-05-29T09:10:50.199Z,5.90
2017-05-29T09:13:19.262Z,6.50
2017-05-29T09:15:48.310Z,6.26
2017-05-29T09:18:17.412Z,6.00
2017-05-29T09:20:45.801Z,5.66
2017-05-29T09:23:14.858Z,5.78
2017-05-29T09:25:43.888Z,6.08
2017-05-29T09:28:12.953Z,5.46
2017-05-29T09:30:42.033Z,5.22
2017-05-29T09:33:11.083Z,5.18
2017-05-29T09:35:40.159Z,5.00
2017-05-29T09:38:09.216Z,5.24
2017-05-29T09:40:38.253Z,4.68
2017-05-29T09:43:07.317Z,6.04
2017-05-29T09:45:36.363Z,5.66
2017-05-29T09:48:05.402Z,4.96
2017-05-29T09:50:34.480Z,5.52
2017-05-29T09:53:03.527Z,5.18
2017-05-29T09:55:32.583Z,5.18
2017-05-29T09:58:01.642Z,4.74
2017-05-29T10:00:30.681Z,5.04
2017-05-29T10:02:59.740Z,5.22
2017-05-29T10:05:28.794Z,5.10
2017-05-29T10:07:57.855Z,5.94
2017-05-29T10:10:26.914Z,5.52
2017-05-29T10:12:56.694Z,4.94
2017-05-29T10:15:25.739Z,5.06
2017-05-29T10:17:54.776Z,6.20
2017-05-29T10:20:23.845Z,5.52
2017-05-29T10:22:52.944Z,5.32
2017-05-29T10:25:21.985Z,5.54
2017-05-29T10:27:51.053Z,5.82
2017-05-29T10:30:20.106Z,5.48
2017-05-29T10:32:49.192Z,5.18
2017-05-29T10:35:18.248Z,4.86
2017-05-29T10:37:47.289Z,5.16
2017-05-29T10:40:16.336Z,5.18
2017-05-29T10:42:45.407Z,4.62
2017-05-29T10:45:14.459Z,5.70
2017-05-29T10:47:43.515Z,5.68
2017-05-29T10:50:12.591Z,5.10
2017-05-29T10:52:41.641Z,5.36
2017-05-29T10:55:10.701Z,5.84
2017-05-29T10:57:39.753Z,5.22
2017-05-29T11:00:08.813Z,5.68
2017-05-29T11:02:37.883Z,5.60
2017-05-29T11:05:06.948Z,5.18
2017-05-29T11:07:36.015Z,4.64
2017-05-29T11:10:05.069Z,4.90
2017-05-29T11:12:34.154Z,4.88
2017-05-29T11:15:03.225Z,5.72
2017-05-29T11:17:32.273Z,5.32
2017-05-29T11:20:01.339Z,5.00
2017-05-29T11:22:30.391Z,5.26
2017-05-29T11:24:59.444Z,5.72
2017-05-29T11:27:28.511Z,5.24
2017-05-29T11:29:57.558Z,5.42
2017-05-29T11:32:26.621Z,5.08
2017-05-29T11:34:55.687Z,5.72
2017-05-29T11:37:25.918Z,5.14
2017-05-29T11:39:54.989Z,5.54
2017-05-29T11:42:24.032Z,4.88
2017-05-29T11:44:53.091Z,4.92
2017-05-29T11:47:23.080Z,5.18
2017-05-29T11:49:52.169Z,5.80
2017-05-29T11:52:21.235Z,5.10
2017-05-29T11:54:50.295Z,5.36
2017-05-29T11:57:19.329Z,5.30
2017-05-29T11:59:48.433Z,5.72
2017-05-29T12:02:18.513Z,5.12
2017-05-29T12:04:47.595Z,5.34
2017-05-29T12:07:16.668Z,4.72
2017-05-29T12:09:45.718Z,5.58
2017-05-29T12:12:14.774Z,5.08
2017-05-29T12:14:43.823Z,5.66
2017-05-29T12:17:12.888Z,5.10
2017-05-29T12:19:41.940Z,5.82
2017-05-29T12:22:10.995Z,5.70
2017-05-29T12:24:40.067Z,5.64
2017-05-29T12:27:09.116Z,5.70
2017-05-29T12:29:38.169Z,5.80
2017-05-29T12:32:07.221Z,5.28
2017-05-29T12:34:36.258Z,5.48
2017-05-29T12:37:05.329Z,5.66
2017-05-29T12:39:34.394Z,5.16
2017-05-29T12:42:03.451Z,5.20
2017-05-29T12:44:32.506Z,5.18
2017-05-29T12:47:01.580Z,5.62
2017-05-29T12:49:30.651Z,5.72
2017-05-29T12:51:59.715Z,5.08
2017-05-29T12:54:28.788Z,5.00
2017-05-29T12:56:57.820Z,5.10
2017-05-29T12:59:26.877Z,4.94
2017-05-29T13:01:55.933Z,4.78
2017-05-29T13:04:25.446Z,4.78
2017-05-29T13:06:54.499Z,3.98
2017-05-29T13:09:23.581Z,4.48
2017-05-29T13:11:51.868Z,4.32
2017-05-29T13:14:20.921Z,4.14
2017-05-29T13:16:50.015Z,4.94
2017-05-29T13:19:19.029Z,4.60
2017-05-29T13:21:48.070Z,3.42
2017-05-29T13:24:17.143Z,3.94
2017-05-29T13:26:46.192Z,4.02
2017-05-29T13:29:15.245Z,3.82
2017-05-29T13:31:44.312Z,3.38
2017-05-29T13:34:13.376Z,3.54
2017-05-29T13:36:42.418Z,3.68
2017-05-29T13:39:11.473Z,3.10
2017-05-29T13:41:40.549Z,3.48
2017-05-29T13:44:09.633Z,3.38
2017-05-29T13:46:38.671Z,4.12
2017-05-29T13:49:07.732Z,3.92
2017-05-29T13:51:36.786Z,3.66
2017-05-29T13:54:05.857Z,4.00
2017-05-29T13:56:34.906Z,3.96
2017-05-29T13:59:03.983Z,4.40
2017-05-29T14:01:33.044Z,3.60
2017-05-29T14:04:02.318Z,3.96
2017-05-29T14:06:31.375Z,3.70
2017-05-29T14:09:00.442Z,3.74
2017-05-29T14:11:29.495Z,4.22
2017-05-29T14:13:58.534Z,4.02
2017-05-29T14:16:27.672Z,4.14
2017-05-29T14:18:56.769Z,3.54
2017-05-29T14:21:25.829Z,4.02
2017-05-29T14:23:54.889Z,3.90
2017-05-29T14:26:23.944Z,3.74
2017-05-29T14:28:52.986Z,3.68
2017-05-29T14:31:22.040Z,5.00
2017-05-29T14:33:51.099Z,3.62
2017-05-29T14:36:20.160Z,3.70
2017-05-29T14:38:48.462Z,3.28
2017-05-29T14:41:17.527Z,3.66
2017-05-29T14:43:46.583Z,3.90
2017-05-29T14:46:15.668Z,3.20
2017-05-29T14:48:44.744Z,3.80
2017-05-29T14:51:13.791Z,4.52
2017-05-29T14:53:42.938Z,4.22
2017-05-29T14:56:12.000Z,4.46
2017-05-29T14:58:41.161Z,6.68
2017-05-29T15:01:10.245Z,4.10
2017-05-29T15:03:39.287Z,4.28
2017-05-29T15:06:08.360Z,3.60
2017-05-29T15:08:37.421Z,4.00
2017-05-29T15:11:06.477Z,3.80
2017-05-29T15:13:35.523Z,3.60
2017-05-29T15:16:04.584Z,3.52
2017-05-29T15:18:33.675Z,3.68
2017-05-29T15:21:02.717Z,4.10
2017-05-29T15:23:32.167Z,5.20
2017-05-29T15:26:01.222Z,3.86
2017-05-29T15:28:30.257Z,4.90
2017-05-29T15:30:59.475Z,4.20
2017-05-29T15:33:28.499Z,4.12
2017-05-29T15:35:57.537Z,4.50
2017-05-29T15:38:26.686Z,3.72
2017-05-29T15:40:55.728Z,4.50
2017-05-29T15:43:24.829Z,4.00
2017-05-29T15:45:53.912Z,4.42
2017-05-29T15:48:22.943Z,4.88
2017-05-29T15:50:51.990Z,4.06
2017-05-29T15:53:21.064Z,4.00
2017-05-29T15:55:50.098Z,4.58
2017-05-29T15:58:19.173Z,4.70
2017-05-29T16:00:48.293Z,3.82
2017-05-29T16:03:17.429Z,6.30
2017-05-29T16:05:46.489Z,4.04
2017-05-29T16:08:15.666Z,4.36
2017-05-29T16:10:44.723Z,4.20
2017-05-29T16:13:13.766Z,4.68
2017-05-29T16:15:42.065Z,4.50
2017-05-29T16:18:11.095Z,4.66
2017-05-29T16:20:40.141Z,4.52
2017-05-29T16:23:09.212Z,4.50
2017-05-29T16:25:38.251Z,4.54
2017-05-29T16:28:07.323Z,4.94
2017-05-29T16:30:36.377Z,4.64
2017-05-29T16:33:05.423Z,5.00
2017-05-29T16:35:34.478Z,5.14
2017-05-29T16:38:03.548Z,5.10
2017-05-29T16:40:32.600Z,4.78
2017-05-29T16:43:01.642Z,4.94
2017-05-29T16:45:30.728Z,5.50
2017-05-29T16:47:59.828Z,5.30
2017-05-29T16:50:28.862Z,4.92
2017-05-29T16:52:58.665Z,4.54
2017-05-29T16:55:27.804Z,4.36
2017-05-29T16:57:56.863Z,4.68
2017-05-29T17:00:25.938Z,4.84
2017-05-29T17:02:55.007Z,5.14
2017-05-29T17:05:24.093Z,5.22
2017-05-29T17:07:53.143Z,4.98
2017-05-29T17:10:22.212Z,5.36
2017-05-29T17:12:51.278Z,5.38
2017-05-29T17:15:20.334Z,5.46
2017-05-29T17:17:49.402Z,5.98
2017-05-29T17:20:18.452Z,5.44
2017-05-29T17:22:47.530Z,5.24
2017-05-29T17:25:16.595Z,4.92
2017-05-29T17:27:45.626Z,5.54
2017-05-29T17:30:16.562Z,5.58
2017-05-29T17:32:45.651Z,5.12
2017-05-29T17:35:14.724Z,5.10
2017-05-29T17:37:43.778Z,5.38
2017-05-29T17:40:12.879Z,5.58
2017-05-29T17:42:41.955Z,5.46
2017-05-29T17:45:11.032Z,4.92
2017-05-29T17:47:40.100Z,5.72
2017-05-29T17:50:09.151Z,4.96
2017-05-29T17:52:38.819Z,5.52
2017-05-29T17:55:07.884Z,5.52
2017-05-29T17:57:36.944Z,4.72
2017-05-29T18:00:07.369Z,5.30
2017-05-29T18:02:35.650Z,5.24
2017-05-29T18:05:04.728Z,5.04
2017-05-29T18:07:33.794Z,5.30
2017-05-29T18:10:02.856Z,5.22
2017-05-29T18:12:32.595Z,4.92
2017-05-29T18:15:01.636Z,4.80
2017-05-29T18:17:30.706Z,5.48
2017-05-29T18:20:00.001Z,4.70
2017-05-29T18:22:29.354Z,5.72
2017-05-29T18:24:58.511Z,4.56
2017-05-29T18:27:27.569Z,5.34
2017-05-29T18:29:56.751Z,5.86
2017-05-29T18:32:25.910Z,5.50
2017-05-29T18:34:55.234Z,5.62
2017-05-29T18:37:24.570Z,5.68
2017-05-29T18:39:53.658Z,5.88
2017-05-29T18:42:22.730Z,6.32
2017-05-29T18:44:51.940Z,5.74
2017-05-29T18:47:21.237Z,5.66
2017-05-29T18:49:50.402Z,6.08
2017-05-29T18:52:19.783Z,6.40
2017-05-29T18:54:49.375Z,7.06
2017-05-29T18:57:18.898Z,6.36
2017-05-29T18:59:48.499Z,6.86
2017-05-29T19:02:18.336Z,6.90
2017-05-29T19:04:47.994Z,7.16
2017-05-29T19:07:17.864Z,7.08
2017-05-29T19:09:47.771Z,7.02
2017-05-29T19:12:17.628Z,6.60
2017-05-29T19:14:47.709Z,6.90
2017-05-29T19:17:17.643Z,6.50
2017-05-29T19:19:47.657Z,7.22
2017-05-29T19:22:17.757Z,6.68
2017-05-29T19:24:47.990Z,6.80
2017-05-29T19:27:18.737Z,6.74
2017-05-29T19:29:50.207Z,6.80
2017-05-29T19:32:19.597Z,6.38
2017-05-29T19:34:49.441Z,7.10
2017-05-29T19:37:19.130Z,7.56
2017-05-29T19:39:48.487Z,7.90
2017-05-29T19:42:17.594Z,7.62
2017-05-29T19:44:46.686Z,7.90
2017-05-29T19:47:15.852Z,7.30
2017-05-29T19:49:44.983Z,7.54
2017-05-29T19:52:14.190Z,8.26
2017-05-29T19:54:43.310Z,8.32
2017-05-29T19:57:12.579Z,8.48
2017-05-29T19:59:42.727Z,7.38
2017-05-29T20:02:11.921Z,8.06
2017-05-29T20:04:41.653Z,7.86
2017-05-29T20:07:11.995Z,8.42
2017-05-29T20:09:42.172Z,9.04
2017-05-29T20:12:14.065Z,8.40
2017-05-29T20:14:43.128Z,9.26
2017-05-29T20:17:12.248Z,9.66
2017-05-29T20:19:41.279Z,8.46
2017-05-29T20:22:10.347Z,8.62
2017-05-29T20:24:39.401Z,8.50
2017-05-29T20:27:08.497Z,9.14
2017-05-29T20:29:37.557Z,9.22
2017-05-29T20:32:06.679Z,9.20
2017-05-29T20:34:35.848Z,8.60
2017-05-29T20:37:04.908Z,9.66
2017-05-29T20:39:34.000Z,11.80
2017-05-29T20:42:03.089Z,11.04
2017-05-29T20:44:32.159Z,11.70
2017-05-29T20:47:01.321Z,11.20
2017-05-29T20:49:30.382Z,11.84
2017-05-29T20:51:59.493Z,12.16
2017-05-29T20:54:28.571Z,12.92
2017-05-29T20:56:57.646Z,14.84
2017-05-29T20:59:26.724Z,14.94
2017-05-29T21:01:55.798Z,15.38
2017-05-29T21:04:24.870Z,15.48
2017-05-29T21:06:53.921Z,16.84
2017-05-29T21:09:23.008Z,15.34
2017-05-29T21:11:52.095Z,16.12
2017-05-29T21:14:21.165Z,15.28
2017-05-29T21:16:50.252Z,15.16
2017-05-29T21:19:19.307Z,16.90
2017-05-29T21:21:48.359Z,16.78
2017-05-29T21:24:17.427Z,16.48
2017-05-29T21:26:46.495Z,16.20
2017-05-29T21:29:15.603Z,16.86
2017-05-29T21:31:44.709Z,15.72
2017-05-29T21:34:14.426Z,17.22
2017-05-29T21:36:43.551Z,17.52
2017-05-29T21:39:13.384Z,18.24
2017-05-29T21:41:42.440Z,19.24
2017-05-29T21:44:11.558Z,16.70
2017-05-29T21:46:40.858Z,18.78
2017-05-29T21:49:10.088Z,19.80
2017-05-29T21:51:39.343Z,18.32
2017-05-29T21:54:08.430Z,16.72
2017-05-29T21:56:37.544Z,19.96
2017-05-29T21:59:06.611Z,19.50
2017-05-29T22:01:35.777Z,20.92
2017-05-29T22:04:04.813Z,19.56
2017-05-29T22:06:33.876Z,21.92
2017-05-29T22:09:02.945Z,21.46
2017-05-29T22:11:31.993Z,22.66
2017-05-29T22:14:01.066Z,22.44
2017-05-29T22:16:30.163Z,25.88
2017-05-29T22:18:59.244Z,23.66
2017-05-29T22:21:28.353Z,24.32
2017-05-29T22:23:57.410Z,27.32
2017-05-29T22:26:26.494Z,28.64
2017-05-29T22:28:55.557Z,23.44
2017-05-29T22:31:24.642Z,27.10
2017-05-29T22:33:53.729Z,27.18
2017-05-29T22:36:22.824Z,28.72
2017-05-29T22:38:51.913Z,27.38
2017-05-29T22:41:20.987Z,30.74
2017-05-29T22:43:50.059Z,30.38
2017-05-29T22:46:19.140Z,33.14
2017-05-29T22:48:48.206Z,32.00
2017-05-29T22:51:16.523Z,32.26
2017-05-29T22:53:45.612Z,30.86
2017-05-29T22:56:14.689Z,31.10
2017-05-29T22:58:43.737Z,31.92
2017-05-29T23:01:12.828Z,32.88
2017-05-29T23:03:41.895Z,32.54
2017-05-29T23:06:10.960Z,34.18
2017-05-29T23:08:40.109Z,35.82
2017-05-29T23:11:09.211Z,33.38
2017-05-29T23:13:38.301Z,34.54
2017-05-29T23:16:07.367Z,37.16
2017-05-29T23:18:36.420Z,36.08
2017-05-29T23:21:05.503Z,32.44
2017-05-29T23:23:34.595Z,33.28
2017-05-29T23:26:03.699Z,33.44
2017-05-29T23:28:32.821Z,32.38
2017-05-29T23:31:01.870Z,32.12
2017-05-29T23:33:30.997Z,30.48
2017-05-29T23:36:00.208Z,29.22
2017-05-29T23:38:29.287Z,30.06
2017-05-29T23:40:58.382Z,29.80
2017-05-29T23:43:27.914Z,32.40
2017-05-29T23:45:56.970Z,32.00
2017-05-29T23:48:26.046Z,35.36
2017-05-29T23:50:55.123Z,33.42
2017-05-29T23:53:24.199Z,34.92
2017-05-29T23:55:53.247Z,38.18
2017-05-29T23:58:22.327Z,38.98
